Latest Weather Observations for Broome

IDW60801

Issued at 6:34 pm WST Sunday 25 June 2017 (issued every 30 minutes, with the page automatically refreshed every 10 minutes)

About weather observations | Map of weather stations | Latest weather observations for WA | Other Formats
Station Details ID: 003003 Name: BROOME AIRPORT Lat: -17.95 Lon: 122.24 Height: 7.42 m
Data from the previous 72 hours. | See also: Recent months at Broome
Date/Time
WST
Temp
°C
App
Temp
°C
Dew
Point
°C
Rel
Hum
%
Delta-T
°C
Wind Press
QNH
hPa
Press
MSL
hPa
Rain since
9am
mm
Dir  Spd
km/h
Gust
km/h
Spd
kts
Gust
kts
25/06:30pm 23.0 24.7 21.0 88 1.3 W 13 17 7 9 1012.7 - 0.0
25/06:00pm 23.3 24.9 20.7 85 1.7 W 13 19 7 10 1012.5 1012.4 0.0
25/05:30pm 23.7 25.0 20.8 84 1.9 W 15 20 8 11 1012.3 - 0.0
25/05:00pm 24.4 25.6 20.6 79 2.5 WSW 15 20 8 11 1012.0 - 0.0
25/04:30pm 25.1 25.4 20.5 75 3.0 WSW 19 24 10 13 1011.8 - 0.0
25/04:00pm 25.5 25.8 20.3 73 3.4 W 19 24 10 13 1011.6 - 0.0
25/03:30pm 25.9 26.6 20.4 71 3.6 W 17 24 9 13 1011.4 - 0.0
25/03:00pm 26.3 26.6 20.5 70 3.8 W 19 24 10 13 1011.6 1011.5 0.0
25/02:30pm 26.3 26.9 20.3 69 3.9 W 17 24 9 13 1011.6 - 0.0
25/02:00pm 26.3 26.6 20.3 69 3.9 W 19 24 10 13 1011.6 - 0.0
25/01:30pm 26.5 27.2 20.4 69 4.0 W 17 22 9 12 1011.9 - 0.0
25/01:00pm 26.3 26.9 20.2 69 4.0 W 17 24 9 13 1012.2 - 0.0
25/12:30pm 26.2 26.8 20.2 69 3.9 W 17 22 9 12 1012.5 - 0.0
25/12:00pm 26.5 27.1 20.2 68 4.1 W 17 24 9 13 1012.9 1012.8 0.0
25/11:30am 26.4 27.8 20.4 69 3.9 WSW 13 20 7 11 1013.5 - 0.0
25/11:00am 26.4 28.2 20.3 69 4.0 S 11 15 6 8 1014.0 - 0.0
25/10:30am 25.1 26.5 20.3 74 3.1 SSW 13 19 7 10 1014.5 - 0.0
25/10:05am 24.3 26.6 20.6 80 2.4 S 9 15 5 8 1014.5 - 0.0
25/10:00am 24.3 26.7 20.8 81 2.3 S 9 13 5 7 1014.6 - 0.0
25/09:30am 22.7 25.3 21.2 91 1.0 S 9 13 5 7 1014.7 - 0.0
25/09:13am 22.1 24.8 21.3 95 0.5 S 9 13 5 7 1014.7 - 0.0
25/09:00am 21.5 24.1 21.2 98 0.2 S 9 13 5 7 1014.7 1014.6 0.0
25/08:49am 21.6 24.7 21.4 99 0.1 S 7 13 4 7 1014.7 - 0.0
25/08:35am 21.5 24.1 21.2 98 0.2 SSE 9 11 5 6 1014.6 - 0.0
25/08:30am 21.4 24.5 21.4 100 0.0 S 7 11 4 6 1014.6 - 0.0
25/08:14am 21.4 23.2 21.2 99 0.1 S 13 17 7 9 1014.5 - 0.0
25/08:00am 21.3 24.3 21.3 100 0.0 S 7 13 4 7 1014.3 - 0.0
25/07:30am 21.0 23.9 21.0 100 0.0 S 7 11 4 6 1013.8 - 0.0
25/07:00am 20.8 23.6 20.8 100 0.0 S 7 11 4 6 1013.4 - 0.0
25/06:51am 20.9 23.3 20.9 100 0.0 S 9 13 5 7 1013.3 - 0.0
25/06:45am 20.9 23.0 20.9 100 0.0 SSE 11 15 6 8 1013.2 - 0.0
25/06:42am 21.0 22.6 20.8 99 0.1 SSE 13 15 7 8 1013.1 - 0.0
25/06:39am 21.0 22.7 21.0 100 0.0 SSE 13 15 7 8 1013.1 - 0.0
25/06:30am 21.3 24.0 21.3 100 0.0 S 9 15 5 8 1012.9 - 0.0
25/06:00am 21.3 24.3 21.3 100 0.0 S 7 11 4 6 1012.6 1012.5 0.0
25/05:30am 21.1 23.6 21.1 100 0.0 S 9 13 5 7 1012.4 - 0.0
25/05:00am 21.2 23.8 21.2 100 0.0 S 9 13 5 7 1012.3 - 0.0
25/04:30am 19.3 21.5 19.1 99 0.1 SSE 6 7 3 4 1012.2 - 0.0
25/04:00am 18.6 21.5 18.3 98 0.2 CALM 0 - 0 - 1012.4 - 0.0
25/03:37am 18.0 20.7 17.7 98 0.2 CALM 0 - 0 - 1012.4 - 0.0
25/03:30am 17.6 20.2 17.4 99 0.1 CALM 0 - 0 - 1012.4 - 0.0
25/03:14am 17.7 20.3 17.5 99 0.1 CALM 0 - 0 - 1012.3 - 0.0
25/03:00am 17.6 20.2 17.4 99 0.1 CALM 0 - 0 - 1012.4 1012.3 0.0
25/02:59am 17.5 20.0 17.3 99 0.1 CALM 0 - 0 - 1012.4 - 0.0
25/02:50am 17.5 20.0 17.3 99 0.1 CALM 0 - 0 - 1012.4 - 0.0
25/02:30am 17.5 20.0 17.3 99 0.1 CALM 0 - 0 - 1012.6 - 0.0
25/02:00am 17.5 20.0 17.3 99 0.1 CALM 0 - 0 - 1012.7 - 0.0
25/01:30am 17.9 20.6 17.7 99 0.1 CALM 0 - 0 - 1012.8 - 0.0
25/01:00am 17.6 19.4 17.3 98 0.2 NNE 4 6 2 3 1013.1 - 0.0
25/12:30am 17.6 19.0 17.3 98 0.2 N 6 7 3 4 1013.2 - 0.0
25/12:00am 18.0 19.6 17.8 99 0.1 N 6 6 3 3 1013.3 1013.2 0.0
 
Date/Time
WST
Temp
°C
App
Temp
°C
Dew
Point
°C
Rel
Hum
%
Delta-T
°C
Wind Press
QNH
hPa
Press
MSL
hPa
Rain since
9am
mm
Dir  Spd
km/h
Gust
km/h
Spd
kts
Gust
kts
24/11:30pm 17.6 20.0 17.1 97 0.3 CALM 0 - 0 - 1013.5 - 0.0
24/11:14pm 18.0 20.6 17.5 97 0.3 CALM 0 - 0 - 1013.5 - 0.0
24/11:11pm 18.0 20.6 17.5 97 0.3 CALM 0 - 0 - 1013.5 - 0.0
24/11:02pm 18.2 20.8 17.5 96 0.4 CALM 0 - 0 - 1013.5 - 0.0
24/11:01pm 18.2 20.8 17.5 96 0.4 CALM 0 - 0 - 1013.5 - 0.0
24/11:00pm 18.2 20.8 17.4 95 0.5 CALM 0 0 0 0 1013.5 - 0.0
24/10:30pm 18.3 20.9 17.5 95 0.5 CALM 0 0 0 0 1013.6 - 0.0
24/10:00pm 20.4 23.2 19.6 95 0.5 WSW 4 7 2 4 1013.7 - 0.0
24/09:30pm 19.9 23.0 18.6 92 0.8 CALM 0 0 0 0 1013.7 - 0.0
24/09:00pm 20.0 23.2 18.9 93 0.7 CALM 0 0 0 0 1013.4 1013.3 0.0
24/08:30pm 21.9 24.7 20.5 92 0.9 WNW 6 7 3 4 1013.1 - 0.0
24/08:00pm 22.8 25.2 20.8 88 1.3 WSW 9 13 5 7 1012.7 - 0.0
24/07:30pm 23.2 25.0 20.4 84 1.8 WSW 11 13 6 7 1012.5 - 0.0
24/07:00pm 23.5 24.5 20.3 82 2.1 WSW 15 17 8 9 1012.0 - 0.0
24/06:30pm 23.7 24.2 20.1 80 2.3 WSW 17 20 9 11 1011.7 - 0.0
24/06:00pm 24.3 24.1 18.6 70 3.6 WSW 17 24 9 13 1011.3 1011.2 0.0
24/05:30pm 24.7 23.7 18.0 66 4.2 WSW 20 26 11 14 1011.0 - 0.0
24/05:00pm 25.6 24.8 18.5 65 4.5 WSW 20 26 11 14 1010.8 - 0.0
24/04:30pm 26.3 24.8 18.6 62 4.9 WSW 24 28 13 15 1010.4 - 0.0
24/04:00pm 26.9 25.4 16.8 54 6.3 WSW 20 26 11 14 1010.2 - 0.0
24/03:30pm 27.5 26.4 17.3 53 6.4 W 19 24 10 13 1010.1 - 0.0
24/03:00pm 28.6 27.5 16.4 47 7.6 W 17 20 9 11 1010.0 1009.9 0.0
24/02:30pm 29.0 27.9 16.3 46 7.9 W 17 20 9 11 1010.1 - 0.0
24/02:00pm 29.6 27.7 15.1 41 8.9 W 19 24 10 13 1010.2 - 0.0
24/01:30pm 30.5 28.5 10.1 28 11.6 S 11 15 6 8 1010.4 - 0.0
24/01:00pm 30.7 29.0 11.2 30 11.3 S 11 17 6 9 1010.8 - 0.0
24/12:30pm 29.8 28.0 11.0 31 10.8 S 11 15 6 8 1011.3 - 0.0
24/12:00pm 29.4 27.8 11.4 32 10.4 S 11 15 6 8 1012.0 1011.9 0.0
24/11:30am 28.8 26.9 11.7 34 9.9 S 13 19 7 10 1012.7 - 0.0
24/11:00am 27.8 26.1 12.5 38 8.9 SE 13 17 7 9 1013.1 - 0.0
24/10:30am 26.1 24.7 12.2 42 8.0 SSE 11 15 6 8 1013.7 - 0.0
24/10:00am 25.5 24.0 12.0 43 7.7 SE 11 13 6 7 1014.0 - 0.0
24/09:30am 24.9 23.6 12.6 46 7.1 SE 11 13 6 7 1014.2 - 0.0
24/09:00am 23.8 22.6 12.9 50 6.3 ESE 11 15 6 8 1014.3 1014.2 0.0
24/08:30am 23.4 23.6 15.8 62 4.6 SE 9 11 5 6 1014.3 - 0.0
24/08:00am 21.3 22.9 16.9 76 2.7 ENE 4 6 2 3 1013.9 - 0.0
24/07:30am 18.8 20.8 15.9 83 1.7 CALM 0 0 0 0 1013.6 - 0.0
24/07:00am 16.4 18.0 14.8 90 0.9 CALM 0 0 0 0 1013.2 - 0.0
24/06:30am 15.4 16.0 14.3 93 0.6 N 4 6 2 3 1013.1 - 0.0
24/06:00am 15.2 15.3 14.0 92 0.7 N 6 7 3 4 1012.9 1012.8 0.0
24/05:30am 14.9 15.9 13.1 89 1.0 CALM 0 0 0 0 1012.7 - 0.0
24/05:00am 16.8 18.2 14.5 86 1.3 CALM 0 4 0 2 1012.6 - 0.0
24/04:30am 20.2 21.1 16.6 80 2.2 S 7 9 4 5 1012.5 - 0.0
24/04:00am 17.7 19.4 15.1 85 1.5 CALM 0 0 0 0 1012.7 - 0.0
24/03:30am 17.1 18.7 14.9 87 1.3 CALM 0 0 0 0 1012.7 - 0.0
24/03:00am 16.3 17.9 14.9 91 0.8 CALM 0 0 0 0 1012.8 1012.7 0.0
24/02:30am 16.6 18.2 14.9 90 1.0 CALM 0 0 0 0 1013.0 - 0.0
24/02:00am 17.3 19.0 15.2 87 1.2 CALM 0 0 0 0 1013.4 - 0.0
24/01:30am 18.6 20.5 15.7 83 1.7 CALM 0 0 0 0 1013.4 - 0.0
24/01:00am 18.1 19.9 15.5 85 1.5 CALM 0 0 0 0 1013.5 - 0.0
24/12:30am 17.3 18.7 15.4 88 1.1 N 2 7 1 4 1013.7 - 0.0
24/12:00am 17.4 17.8 15.2 87 1.3 NE 7 11 4 6 1013.8 1013.7 0.0
 
Date/Time
WST
Temp
°C
App
Temp
°C
Dew
Point
°C
Rel
Hum
%
Delta-T
°C
Wind Press
QNH
hPa
Press
MSL
hPa
Rain since
9am
mm
Dir  Spd
km/h
Gust
km/h
Spd
kts
Gust
kts
23/11:30pm 19.5 21.5 16.0 80 2.1 CALM 0 0 0 0 1013.8 - 0.0
23/11:00pm 19.6 21.5 15.7 78 2.3 CALM 0 0 0 0 1014.0 - 0.0
23/10:30pm 20.5 22.6 16.2 76 2.6 CALM 0 0 0 0 1014.0 - 0.0
23/10:00pm 22.5 23.3 15.9 66 4.0 SW 6 11 3 6 1013.9 - 0.0
23/09:30pm 23.0 22.8 16.8 68 3.8 SSW 13 19 7 10 1013.7 - 0.0
23/09:00pm 23.2 23.4 17.6 71 3.5 SW 13 19 7 10 1013.6 1013.5 0.0
23/08:30pm 23.2 25.3 20.1 83 2.0 SW 9 13 5 7 1013.4 - 0.0
23/08:00pm 23.8 24.4 19.4 76 2.8 SW 15 19 8 10 1013.1 - 0.0
23/07:30pm 24.1 23.9 17.7 67 4.0 SW 15 20 8 11 1012.9 - 0.0
23/07:00pm 24.1 24.1 17.3 65 4.2 SW 13 19 7 10 1012.6 - 0.0
23/06:30pm 24.4 23.3 17.3 64 4.4 SW 19 26 10 14 1012.4 - 0.0
23/06:00pm 24.4 23.4 17.5 65 4.3 SW 19 24 10 13 1011.9 1011.8 0.0
23/05:30pm 24.6 23.4 18.4 68 3.9 WSW 22 30 12 16 1011.7 - 0.0
23/05:00pm 25.6 24.2 16.5 57 5.6 WSW 19 24 10 13 1011.4 - 0.0
23/04:30pm 26.8 24.6 14.9 48 7.2 WSW 20 28 11 15 1011.3 - 0.0
23/04:00pm 27.1 24.7 15.5 49 7.1 SW 22 28 12 15 1011.3 - 0.0
23/03:30pm 27.5 25.2 15.6 48 7.3 WSW 22 26 12 14 1011.3 - 0.0
23/03:00pm 27.9 25.8 15.1 45 7.8 WSW 20 24 11 13 1011.6 1011.5 0.0
23/02:30pm 28.5 25.5 13.8 40 8.8 SW 22 28 12 15 1011.7 - 0.0
23/02:00pm 28.9 26.0 12.3 36 9.7 W 19 24 10 13 1011.9 - 0.0
23/01:30pm 29.3 26.9 12.6 35 9.8 W 17 20 9 11 1012.2 - 0.0
23/01:00pm 30.4 29.0 10.9 30 11.2 SW 9 19 5 10 1012.6 - 0.0
23/12:30pm 30.0 28.0 8.7 26 11.8 SW 9 13 5 7 1013.2 - 0.0
23/12:00pm 28.9 26.7 9.5 29 10.8 SSW 11 15 6 8 1013.9 1013.8 0.0
23/11:30am 28.4 26.8 10.3 32 10.2 SSE 9 13 5 7 1014.5 - 0.0
23/11:00am 27.7 26.0 10.0 33 9.9 S 9 13 5 7 1014.9 - 0.0
23/10:30am 27.3 25.6 9.9 33 9.7 SSE 9 11 5 6 1015.3 - 0.0
23/10:00am 26.0 24.7 10.1 36 8.8 SE 7 11 4 6 1015.7 - 0.0
23/09:30am 24.7 24.0 12.1 45 7.2 SE 7 11 4 6 1015.8 - 0.0
23/09:00am 24.6 23.3 11.2 43 7.5 ESE 9 11 5 6 1016.0 1015.9 0.0
23/08:30am 23.6 22.2 11.0 45 7.0 SE 9 11 5 6 1016.1 - 0.0
23/08:00am 21.1 23.3 16.5 75 2.8 CALM 0 0 0 0 1015.9 - 0.0
23/07:30am 18.4 19.2 15.9 85 1.5 NNE 6 11 3 6 1015.7 - 0.0
23/07:00am 16.9 18.5 14.8 87 1.2 CALM 0 0 0 0 1015.4 - 0.0
23/06:30am 15.1 15.2 13.9 92 0.7 N 6 7 3 4 1015.1 - 0.0
23/06:00am 14.6 14.3 13.3 92 0.7 NE 7 11 4 6 1014.9 1014.8 0.0
23/05:30am 15.6 16.9 14.2 91 0.8 CALM 0 0 0 0 1014.8 - 0.0
23/05:00am 16.1 17.5 14.5 90 0.9 CALM 0 0 0 0 1014.6 - 0.0
23/04:30am 16.0 17.3 14.2 89 1.0 CALM 0 0 0 0 1014.6 - 0.0
23/04:00am 15.5 16.4 13.9 90 0.9 NNE 2 7 1 4 1014.4 - 0.0
23/03:30am 16.2 16.4 14.3 88 1.1 N 6 9 3 5 1014.5 - 0.0
23/03:00am 17.9 18.4 15.0 83 1.7 S 6 7 3 4 1014.5 1014.4 0.0
23/02:30am 18.7 20.0 16.2 85 1.5 WSW 4 7 2 4 1014.8 - 0.0
23/02:00am 18.8 21.1 16.8 88 1.2 CALM 0 0 0 0 1015.0 - 0.0
23/01:30am 18.2 20.4 16.4 89 1.1 CALM 0 0 0 0 1015.3 - 0.0
23/01:00am 18.3 20.5 16.6 90 1.0 CALM 0 0 0 0 1015.6 - 0.0
23/12:30am 17.7 20.0 16.7 94 0.6 CALM 0 0 0 0 1015.7 - 0.0
23/12:00am 18.0 20.3 16.7 92 0.8 CALM 0 0 0 0 1015.8 1015.7 0.0
 
Date/Time
WST
Temp
°C
App
Temp
°C
Dew
Point
°C
Rel
Hum
%
Delta-T
°C
Wind Press
QNH
hPa
Press
MSL
hPa
Rain since
9am
mm
Dir  Spd
km/h
Gust
km/h
Spd
kts
Gust
kts
22/11:30pm 18.2 20.1 16.7 91 0.9 NNE 2 7 1 4 1015.8 - 0.0
22/11:00pm 17.5 18.2 16.0 91 0.9 NNE 7 9 4 5 1015.8 - 0.0
22/10:30pm 18.0 18.8 16.3 90 1.0 NNE 7 11 4 6 1015.8 - 0.0
22/10:00pm 18.3 20.3 16.1 87 1.3 CALM 0 0 0 0 1015.7 - 0.0
22/09:30pm 18.4 20.4 15.9 85 1.5 CALM 0 0 0 0 1015.7 - 0.0
22/09:00pm 18.7 20.6 15.8 83 1.7 CALM 0 0 0 0 1015.6 1015.5 0.0
22/08:30pm 19.4 21.4 16.0 81 2.0 CALM 0 0 0 0 1015.4 - 0.0
22/08:00pm 20.6 21.4 16.3 76 2.6 WNW 7 13 4 7 1015.1 - 0.0
22/07:30pm 23.9 24.6 16.2 62 4.7 S 7 13 4 7 1014.7 - 0.0
22/07:00pm 23.7 24.6 16.7 65 4.3 W 7 9 4 5 1014.2 - 0.0

Other Formats:

Comma delimited format used in spreadsheet applications
http://www.bom.gov.au/fwo/IDW60801/IDW60801.94203.axf

JavaScript Object Notation format (JSON) in row-major order
http://www.bom.gov.au/fwo/IDW60801/IDW60801.94203.json